Guerneville, CA (95446)

2:05 PM PDT on September 27, 2016 (GMT -0700)
The Woods Resort | | Change Station

Elev 59 ft 38.50 °N, 123.00 °W | Updated 4 seconds ago

Clear
Clear
91.0 °F
Feels Like 87 °F
N
3.6
Wind Variable Wind from South
Gusts 4.9 mph

Today
High -- | Low -- °F
--% Chance of Precip.
Yesterday
High -- | Low -- °F
Precip. -- in
Pressure 29.81 in
Visibility 10.0 miles
Clouds Clear
Heat Index 87 °F
Dew Point 44 °F
Humidity 20%
Rainfall 0.00 in
Snow Depth Not available.
7:04 AM 7:00 PM
Waning Crescent, 9% visible
METAR KSTS 272053Z 20008KT 10SM CLR 33/06 A2983 RMK AO2 SLP095 T03330061 58022
Pressure 29.81 in
Visibility 10.0 miles
Clouds Clear
Heat Index 87 °F
Dew Point 44 °F
Humidity 20%
Rainfall 0.00 in
Snow Depth Not available.
7:04 AM 7:00 PM
Waning Crescent, 9% visible
METAR KSTS 272053Z 20008KT 10SM CLR 33/06 A2983 RMK AO2 SLP095 T03330061 58022

10-Day Weather Forecast

Almanac

Astronomy

Sep. 27, 2016 Rise Set
Actual Time
Civil Twilight
Nautical Twilight
Astronomical Twilight
Moon
Length of Visible Light
Length of Day
Tomorrow will be .
, % of the Moon is Illuminated

Today's Extremes

State Highs State Lows

Community

WunderPhotos

Upload Photos

1,942,154 photos uploaded!

WunderBlog® & News

Nearby

Air Quality

  Air Quality AQ Index Pollutant
Not available.

Snow Depth

Station Depth Elevation

Earthquake Activity

City Distance Mag. Time & Date
Minimum magnitude displayed is 2.5.

Coastal Water Temperatures

Place Temperature

Stations

Nearby Weather Stations

Station Location Temp. Windchill Dew Point Humidity Wind Precip. Elev Updated Type
                   

Watches & Warnings

There are currently no watches in effect.